Mt Bachelor previous 24hr weather report

For range Aug 3 2015 4:53 PM PDT to Aug 4 2015 4:53 PM PDT.

Date and time 6300' Base Temp 7800' Pine Temp 8000' Northwest Temp 9000' Summit Temp Base RH Pine RH Summit RH Pine Wind Avg Pine Wind Max Pine Wind Dir Northwest Wind Avg Northwest Wind Max Northwest Wind Dir Summit Wind Avg Summit Wind Max Summit Wind Dir Snowdepth
Aug 4 2015 4:00 PM PDT 67.87 -6999.0 n/a 63.48 37 -6999 36 0 0 0 n/a n/a n/a 17 25 47 163
Aug 4 2015 3:00 PM PDT 67.46 -6999.0 n/a 62.7 37 -6999 40 0 0 0 n/a n/a n/a 14 22 47 162
Aug 4 2015 2:00 PM PDT 68.13 -6999.0 n/a 62.54 38 -6999 41 0 0 0 n/a n/a n/a 13 28 47 162
Aug 4 2015 1:00 PM PDT 68.22 -6999.0 n/a 62.26 36 -6999 39 0 0 0 n/a n/a n/a 11 20 47 162
Aug 4 2015 12:00 PM PDT 68.4 -6999.0 n/a 60.64 35 -6999 39 0 0 0 n/a n/a n/a 9 14 47 162
Aug 4 2015 11:00 AM PDT 64.22 -6999.0 n/a 60.07 38 -6999 39 0 0 0 n/a n/a n/a 13 15 47 161
Aug 4 2015 10:00 AM PDT 62.87 -6999.0 n/a 58.17 33 -6999 42 0 0 0 n/a n/a n/a 6 13 47 161
Aug 4 2015 9:00 AM PDT 60.48 -6999.0 n/a 57.41 36 -6999 43 0 0 0 n/a n/a n/a 7 10 47 161
Aug 4 2015 8:00 AM PDT 50.93 -6999.0 n/a 53.93 73 -6999 49 0 0 0 n/a n/a n/a 18 20 47 161
Aug 4 2015 7:00 AM PDT 47.31 -6999.0 n/a 53.18 69 -6999 50 0 0 0 n/a n/a n/a 16 17 47 162
Aug 4 2015 6:00 AM PDT 45.9 -6999.0 n/a 53.35 71 -6999 48 0 0 0 n/a n/a n/a 16 18 47 162
Aug 4 2015 5:00 AM PDT ? -6999.0 n/a 53.97 72 -6999 51 0 0 0 n/a n/a n/a 18 20 47 161
Aug 4 2015 4:00 AM PDT 47.3 -6999.0 n/a n/a 75 -6999 n/a 0 0 0 n/a n/a n/a n/a n/a n/a 161
Aug 4 2015 3:00 AM PDT 48.84 -6999.0 n/a 57.23 82 -6999 49 0 0 0 n/a n/a n/a 11 12 47 161
Aug 4 2015 2:00 AM PDT 49.02 -6999.0 n/a 57.56 86 -6999 50 0 0 0 n/a n/a n/a 10 12 47 161
Aug 4 2015 1:00 AM PDT 49.5 -6999.0 n/a 58.34 89 -6999 55 0 0 0 n/a n/a n/a 5 6 47 161
Aug 4 2015 12:00 AM PDT 50.96 -6999.0 n/a 59.06 88 -6999 53 0 0 0 n/a n/a n/a 3 4 47 162
Aug 3 2015 11:00 PM PDT 52.78 -6999.0 n/a 59.06 83 -6999 49 0 0 0 n/a n/a n/a 1 3 47 161
Aug 3 2015 10:00 PM PDT 54.32 -6999.0 n/a 57.33 77 -6999 49 ? 0 0 n/a n/a n/a 1 2 39 161
Aug 3 2015 9:00 PM PDT 56.35 -6999.0 n/a 54.37 73 -6999 55 0 0 0 n/a n/a n/a 11 13 47 161
Aug 3 2015 8:00 PM PDT 59.86 -6999.0 n/a 59.43 61 -6999 44 0 0 0 n/a n/a n/a 15 18 47 162
Aug 3 2015 7:00 PM PDT 61.06 -6999.0 n/a 58.07 61 -6999 56 0 0 0 n/a n/a n/a 23 26 47 162
Aug 3 2015 6:00 PM PDT 62.14 -6999.0 n/a 59.37 58 -6999 58 0 0 0 n/a n/a n/a 26 28 47 161
Aug 3 2015 5:00 PM PDT 64.09 -6999.0 n/a 61.86 48 -6999 48 0 0 0 n/a n/a n/a 22 26 47 161